createdAt,value
2024-02-29T00:03:53.623Z,11.57
2024-02-29T00:08:56.925Z,11.64
2024-02-29T00:14:00.134Z,11.24
2024-02-29T00:19:04.654Z,11.33
2024-02-29T00:24:08.756Z,11.45
2024-02-29T00:29:11.995Z,11.56
2024-02-29T00:34:15.725Z,11.61
2024-02-29T00:39:20.038Z,11.53
2024-02-29T00:44:24.351Z,11.62
2024-02-29T00:49:27.691Z,11.37
2024-02-29T00:54:31.015Z,11.55
2024-02-29T00:59:34.727Z,11.48
2024-02-29T01:04:39.321Z,11.61
2024-02-29T01:09:42.889Z,11.60
2024-02-29T01:14:46.038Z,11.57
2024-02-29T01:19:49.224Z,11.57
2024-02-29T01:24:53.426Z,11.47
2024-02-29T01:29:56.666Z,11.42
2024-02-29T01:35:00.706Z,11.51
2024-02-29T01:40:05.564Z,11.46
2024-02-29T01:45:09.069Z,11.36
2024-02-29T01:50:14.162Z,11.36
2024-02-29T01:55:17.869Z,11.39
2024-02-29T02:00:21.915Z,11.17
2024-02-29T02:05:28.019Z,11.09
2024-02-29T02:10:31.255Z,11.20
2024-02-29T02:15:35.309Z,11.19
2024-02-29T02:20:39.269Z,11.00
2024-02-29T02:25:43.639Z,10.95
2024-02-29T02:30:47.785Z,10.91
2024-02-29T02:35:52.326Z,10.93
2024-02-29T02:40:55.956Z,10.82
2024-02-29T02:45:59.607Z,10.95
2024-02-29T02:51:03.800Z,11.08
2024-02-29T02:56:07.555Z,11.23
2024-02-29T03:01:11.847Z,11.24
2024-02-29T03:06:15.697Z,11.23
2024-02-29T03:11:19.443Z,11.24
2024-02-29T03:16:25.085Z,11.23
2024-02-29T03:21:29.644Z,11.22
2024-02-29T03:26:33.685Z,11.16
2024-02-29T03:31:37.381Z,11.14
2024-02-29T03:36:40.909Z,11.09
2024-02-29T03:41:44.511Z,11.15
2024-02-29T03:46:48.713Z,11.29
2024-02-29T03:51:52.429Z,11.10
2024-02-29T03:56:56.346Z,10.96
2024-02-29T04:02:01.698Z,11.00
2024-02-29T04:07:06.163Z,10.99
2024-02-29T04:12:10.172Z,11.00
2024-02-29T04:17:13.824Z,10.98
2024-02-29T04:22:17.293Z,10.98
2024-02-29T04:27:20.691Z,10.86
2024-02-29T04:32:23.956Z,10.78
2024-02-29T04:37:27.160Z,10.88
2024-02-29T04:42:30.640Z,10.76
2024-02-29T04:47:36.070Z,10.69
2024-02-29T04:52:39.360Z,10.69
2024-02-29T04:57:42.732Z,10.25
2024-02-29T05:02:46.015Z,10.54
2024-02-29T05:07:49.330Z,10.47
2024-02-29T05:12:52.742Z,10.24
2024-02-29T05:17:55.930Z,10.27
2024-02-29T05:22:59.164Z,10.33
2024-02-29T05:28:03.332Z,10.57
2024-02-29T05:33:06.757Z,10.59
2024-02-29T05:38:10.015Z,10.66
2024-02-29T05:43:16.866Z,10.64
2024-02-29T05:48:20.166Z,10.74
2024-02-29T05:53:24.342Z,10.89
2024-02-29T05:58:33.090Z,10.90
2024-02-29T06:03:39.143Z,10.98
2024-02-29T06:08:42.568Z,10.81
2024-02-29T06:13:45.756Z,10.85
2024-02-29T06:18:49.555Z,10.90
2024-02-29T06:23:56.367Z,10.67
2024-02-29T06:28:59.605Z,10.57
2024-02-29T06:34:04.078Z,10.50
2024-02-29T06:39:09.512Z,10.56
2024-02-29T06:44:13.393Z,10.66
2024-02-29T06:49:17.255Z,10.58
2024-02-29T06:54:20.536Z,10.62
2024-02-29T06:59:23.853Z,10.54
2024-02-29T07:04:27.243Z,10.48
2024-02-29T07:09:30.600Z,10.44
2024-02-29T07:14:36.217Z,10.39
2024-02-29T07:19:40.854Z,10.57
2024-02-29T07:24:44.014Z,10.55
2024-02-29T07:29:47.385Z,10.42
2024-02-29T07:34:50.517Z,10.30
2024-02-29T07:39:53.724Z,10.22
2024-02-29T07:44:57.759Z,10.57
2024-02-29T07:50:00.960Z,10.53
2024-02-29T07:55:07.533Z,10.67
2024-02-29T08:00:13.140Z,10.85
2024-02-29T08:05:16.514Z,10.71
2024-02-29T08:10:20.339Z,11.07
2024-02-29T08:15:23.852Z,10.91
2024-02-29T08:20:27.456Z,10.86
2024-02-29T08:25:32.323Z,10.83
2024-02-29T08:30:35.547Z,11.12
2024-02-29T08:35:40.272Z,11.31
2024-02-29T08:40:43.564Z,11.41
2024-02-29T08:45:46.825Z,11.42
2024-02-29T08:50:50.303Z,11.59
2024-02-29T08:55:53.954Z,11.96
2024-02-29T09:00:57.401Z,11.91
2024-02-29T09:06:01.094Z,12.13
2024-02-29T09:11:05.077Z,12.13
2024-02-29T09:16:09.480Z,12.42
2024-02-29T09:21:12.923Z,12.48
2024-02-29T09:26:18.023Z,12.63
2024-02-29T09:31:21.811Z,12.59
2024-02-29T09:36:26.129Z,12.80
2024-02-29T09:41:41.597Z,12.91
2024-02-29T09:46:52.692Z,13.26
2024-02-29T09:51:56.439Z,13.34
2024-02-29T09:57:00.247Z,13.45
2024-02-29T10:02:05.393Z,13.49
2024-02-29T10:07:08.974Z,13.26
2024-02-29T10:12:17.937Z,13.31
2024-02-29T10:17:21.230Z,13.65
2024-02-29T10:22:24.423Z,13.42
2024-02-29T10:27:28.514Z,13.40
2024-02-29T10:32:33.997Z,13.83
2024-02-29T10:37:37.372Z,13.89
2024-02-29T10:42:42.291Z,13.98
2024-02-29T10:47:54.708Z,13.82
2024-02-29T10:53:09.088Z,13.85
2024-02-29T10:58:23.426Z,13.73
2024-02-29T11:03:27.188Z,13.95
2024-02-29T11:08:38.068Z,13.93
2024-02-29T11:13:42.477Z,14.00
2024-02-29T11:18:45.997Z,14.32
2024-02-29T11:23:50.846Z,14.08
2024-02-29T11:28:54.164Z,14.10
2024-02-29T11:33:57.593Z,14.29
2024-02-29T11:39:01.061Z,14.54
2024-02-29T11:44:04.934Z,14.50
2024-02-29T11:49:08.290Z,14.54
2024-02-29T11:54:14.458Z,14.59
2024-02-29T11:59:19.168Z,14.70
2024-02-29T12:04:22.925Z,14.78
2024-02-29T12:09:26.730Z,14.55
2024-02-29T12:14:30.529Z,14.83
2024-02-29T12:19:33.918Z,14.62
2024-02-29T12:24:37.242Z,14.65
2024-02-29T12:29:43.968Z,14.52
2024-02-29T12:34:47.682Z,14.73
2024-02-29T12:39:56.157Z,14.96
2024-02-29T12:45:00.183Z,15.07
2024-02-29T12:50:09.424Z,15.53
2024-02-29T12:55:13.754Z,15.28
2024-02-29T13:00:25.631Z,15.41
2024-02-29T13:05:28.972Z,15.17
2024-02-29T13:10:32.162Z,14.98
2024-02-29T13:15:35.734Z,15.17
2024-02-29T13:20:39.123Z,14.99
2024-02-29T13:25:42.555Z,15.15
2024-02-29T13:30:45.966Z,14.98
2024-02-29T13:35:49.192Z,15.02
2024-02-29T13:40:52.342Z,15.09
2024-02-29T13:45:55.689Z,14.93
2024-02-29T13:50:59.117Z,14.69
2024-02-29T13:56:02.600Z,14.75
2024-02-29T14:01:08.418Z,14.94
2024-02-29T14:06:15.821Z,14.98
2024-02-29T14:11:19.188Z,15.11
2024-02-29T14:16:22.729Z,14.98
2024-02-29T14:21:26.089Z,15.33
2024-02-29T14:26:29.475Z,15.32
2024-02-29T14:31:32.898Z,15.20
2024-02-29T14:36:37.894Z,15.13
2024-02-29T14:41:45.094Z,14.92
2024-02-29T14:46:49.033Z,15.04
2024-02-29T14:51:56.410Z,14.81
2024-02-29T14:56:59.861Z,14.80
2024-02-29T15:02:03.471Z,14.81
2024-02-29T15:07:07.212Z,14.96
2024-02-29T15:12:10.579Z,15.10
2024-02-29T15:17:14.165Z,15.00
2024-02-29T15:22:17.747Z,14.59
2024-02-29T15:27:21.415Z,14.24
2024-02-29T15:32:24.997Z,14.04
2024-02-29T15:37:29.280Z,13.89
2024-02-29T15:42:33.667Z,13.82
2024-02-29T15:47:36.983Z,13.78
2024-02-29T15:52:40.465Z,13.80
2024-02-29T15:57:43.767Z,13.93
2024-02-29T16:02:46.895Z,13.62
2024-02-29T16:07:51.957Z,13.38
2024-02-29T16:13:00.273Z,13.26
2024-02-29T16:18:03.906Z,13.20
2024-02-29T16:23:07.246Z,13.00
2024-02-29T16:28:10.678Z,13.03
2024-02-29T16:33:14.037Z,12.80
2024-02-29T16:38:17.410Z,12.61
2024-02-29T16:43:22.358Z,12.65
2024-02-29T16:48:26.288Z,12.71
2024-02-29T16:53:29.551Z,12.58
2024-02-29T16:58:33.711Z,12.54
2024-02-29T17:03:37.002Z,12.31
2024-02-29T17:08:40.309Z,12.17
2024-02-29T17:13:44.691Z,12.19
2024-02-29T17:18:48.210Z,12.26
2024-02-29T17:23:54.968Z,12.20
2024-02-29T17:28:58.363Z,12.07
2024-02-29T17:34:04.875Z,12.01
2024-02-29T17:39:08.607Z,11.77
2024-02-29T17:44:13.628Z,11.73
2024-02-29T17:49:17.471Z,11.81
2024-02-29T17:54:21.196Z,11.72
2024-02-29T17:59:24.464Z,11.87
2024-02-29T18:04:29.335Z,11.88
2024-02-29T18:09:33.620Z,11.83
2024-02-29T18:14:36.834Z,11.80
2024-02-29T18:19:40.146Z,11.79
2024-02-29T18:24:43.461Z,11.62
2024-02-29T18:29:47.887Z,11.59
2024-02-29T18:34:51.086Z,11.42
2024-02-29T18:39:55.039Z,11.36
2024-02-29T18:44:59.605Z,11.29
2024-02-29T18:50:04.347Z,11.25
2024-02-29T18:55:11.010Z,11.19
2024-02-29T19:00:16.544Z,11.22
2024-02-29T19:05:19.914Z,10.99
2024-02-29T19:10:24.434Z,11.04
2024-02-29T19:15:27.711Z,10.95
2024-02-29T19:20:30.952Z,11.01
2024-02-29T19:25:34.276Z,11.03
2024-02-29T19:30:38.071Z,10.94
2024-02-29T19:35:41.260Z,10.90
2024-02-29T19:40:44.540Z,10.72
2024-02-29T19:45:47.857Z,10.81
2024-02-29T19:50:52.453Z,10.82
2024-02-29T19:55:56.538Z,10.79
2024-02-29T20:01:04.631Z,10.72
2024-02-29T20:06:08.291Z,10.63
2024-02-29T20:11:11.822Z,10.63
2024-02-29T20:16:15.058Z,10.46
2024-02-29T20:21:18.267Z,10.40
2024-02-29T20:26:21.485Z,10.30
2024-02-29T20:31:25.514Z,10.22
2024-02-29T20:36:30.332Z,10.21
2024-02-29T20:41:34.081Z,10.17
2024-02-29T20:46:37.672Z,10.05
2024-02-29T20:51:41.195Z,10.04
2024-02-29T20:56:44.729Z,10.16
2024-02-29T21:01:48.116Z,10.22
2024-02-29T21:06:51.835Z,10.24
2024-02-29T21:11:55.131Z,10.16
2024-02-29T21:16:58.351Z,10.18
2024-02-29T21:22:01.657Z,10.21
2024-02-29T21:27:07.320Z,10.25
2024-02-29T21:32:10.597Z,10.32
2024-02-29T21:37:13.863Z,10.41
2024-02-29T21:42:17.200Z,10.25
2024-02-29T21:47:20.471Z,10.35
2024-02-29T21:52:24.355Z,10.25
2024-02-29T21:57:27.595Z,10.36
2024-02-29T22:02:30.985Z,10.30
2024-02-29T22:07:34.382Z,10.11
2024-02-29T22:12:39.156Z,10.15
2024-02-29T22:17:42.399Z,10.18
2024-02-29T22:22:45.610Z,10.29
2024-02-29T22:27:49.011Z,10.04
2024-02-29T22:32:52.579Z,9.89
2024-02-29T22:37:55.788Z,9.96
2024-02-29T22:42:59.037Z,9.74
2024-02-29T22:48:02.315Z,9.76
2024-02-29T22:53:05.562Z,9.81
2024-02-29T22:58:08.842Z,10.03
2024-02-29T23:03:12.300Z,9.83
2024-02-29T23:08:15.887Z,9.89
2024-02-29T23:13:19.102Z,9.82
2024-02-29T23:18:22.623Z,9.84
2024-02-29T23:23:26.138Z,9.76
2024-02-29T23:28:29.558Z,9.70
2024-02-29T23:33:33.008Z,9.83
2024-02-29T23:38:36.226Z,9.95
2024-02-29T23:43:39.810Z,9.86
2024-02-29T23:48:43.100Z,9.55
2024-02-29T23:53:46.217Z,9.30
2024-02-29T23:58:49.489Z,9.47
